sensor_id;sensor_type;location;lat;lon;timestamp;P1;durP1;ratioP1;P2;durP2;ratioP2
5696;SDS011;2873;50.966;7.210;2022-08-21T00:01:03;13.85;;;9.00;;
5696;SDS011;2873;50.966;7.210;2022-08-21T00:03:35;13.77;;;9.10;;
5696;SDS011;2873;50.966;7.210;2022-08-21T00:06:00;14.10;;;9.00;;
5696;SDS011;2873;50.966;7.210;2022-08-21T00:08:27;10.60;;;8.77;;
5696;SDS011;2873;50.966;7.210;2022-08-21T00:10:52;12.50;;;8.63;;
5696;SDS011;2873;50.966;7.210;2022-08-21T00:13:18;11.53;;;8.33;;
5696;SDS011;2873;50.966;7.210;2022-08-21T00:15:45;11.27;;;8.57;;
5696;SDS011;2873;50.966;7.210;2022-08-21T00:18:11;18.33;;;9.00;;
5696;SDS011;2873;50.966;7.210;2022-08-21T00:20:37;13.15;;;8.73;;
5696;SDS011;2873;50.966;7.210;2022-08-21T00:23:05;12.25;;;8.80;;
5696;SDS011;2873;50.966;7.210;2022-08-21T00:25:31;11.77;;;8.70;;
5696;SDS011;2873;50.966;7.210;2022-08-21T00:27:57;15.45;;;8.98;;
5696;SDS011;2873;50.966;7.210;2022-08-21T00:30:23;10.07;;;8.55;;
5696;SDS011;2873;50.966;7.210;2022-08-21T00:32:51;15.45;;;8.50;;
5696;SDS011;2873;50.966;7.210;2022-08-21T00:35:19;13.30;;;8.55;;
5696;SDS011;2873;50.966;7.210;2022-08-21T00:37:47;10.48;;;8.65;;
5696;SDS011;2873;50.966;7.210;2022-08-21T00:40:14;13.80;;;8.63;;
5696;SDS011;2873;50.966;7.210;2022-08-21T00:42:42;13.65;;;8.90;;
5696;SDS011;2873;50.966;7.210;2022-08-21T00:45:13;12.00;;;8.52;;
5696;SDS011;2873;50.966;7.210;2022-08-21T00:47:39;15.70;;;8.60;;
5696;SDS011;2873;50.966;7.210;2022-08-21T00:50:05;11.82;;;8.30;;
5696;SDS011;2873;50.966;7.210;2022-08-21T00:52:33;14.10;;;8.50;;
5696;SDS011;2873;50.966;7.210;2022-08-21T00:55:01;12.00;;;8.45;;
5696;SDS011;2873;50.966;7.210;2022-08-21T00:57:49;13.83;;;8.73;;
5696;SDS011;2873;50.966;7.210;2022-08-21T01:00:17;12.82;;;8.95;;
5696;SDS011;2873;50.966;7.210;2022-08-21T01:02:46;13.35;;;9.05;;
5696;SDS011;2873;50.966;7.210;2022-08-21T01:05:12;16.33;;;9.20;;
5696;SDS011;2873;50.966;7.210;2022-08-21T01:07:38;13.87;;;8.50;;
5696;SDS011;2873;50.966;7.210;2022-08-21T01:10:05;15.57;;;9.23;;
5696;SDS011;2873;50.966;7.210;2022-08-21T01:12:32;12.75;;;9.23;;
5696;SDS011;2873;50.966;7.210;2022-08-21T01:14:58;13.82;;;8.57;;
5696;SDS011;2873;50.966;7.210;2022-08-21T01:17:25;13.65;;;9.38;;
5696;SDS011;2873;50.966;7.210;2022-08-21T01:19:52;14.38;;;9.05;;
5696;SDS011;2873;50.966;7.210;2022-08-21T01:22:22;13.02;;;8.70;;
5696;SDS011;2873;50.966;7.210;2022-08-21T01:24:47;12.83;;;8.50;;
5696;SDS011;2873;50.966;7.210;2022-08-21T01:27:14;11.50;;;7.70;;
5696;SDS011;2873;50.966;7.210;2022-08-21T01:32:23;16.80;;;9.40;;
5696;SDS011;2873;50.966;7.210;2022-08-21T01:34:50;16.63;;;9.40;;
5696;SDS011;2873;50.966;7.210;2022-08-21T01:37:17;12.55;;;8.80;;
5696;SDS011;2873;50.966;7.210;2022-08-21T01:39:44;15.85;;;9.27;;
5696;SDS011;2873;50.966;7.210;2022-08-21T01:42:11;13.45;;;9.35;;
5696;SDS011;2873;50.966;7.210;2022-08-21T01:44:37;13.57;;;9.00;;
5696;SDS011;2873;50.966;7.210;2022-08-21T01:47:04;12.98;;;9.73;;
5696;SDS011;2873;50.966;7.210;2022-08-21T01:49:33;12.80;;;10.30;;
5696;SDS011;2873;50.966;7.210;2022-08-21T01:52:00;14.00;;;9.67;;
5696;SDS011;2873;50.966;7.210;2022-08-21T01:54:26;12.40;;;8.80;;
5696;SDS011;2873;50.966;7.210;2022-08-21T01:56:52;11.93;;;9.05;;
5696;SDS011;2873;50.966;7.210;2022-08-21T01:59:19;14.57;;;9.85;;
5696;SDS011;2873;50.966;7.210;2022-08-21T02:01:45;14.47;;;9.93;;
5696;SDS011;2873;50.966;7.210;2022-08-21T02:04:11;14.52;;;10.23;;
5696;SDS011;2873;50.966;7.210;2022-08-21T02:06:37;12.52;;;9.27;;
5696;SDS011;2873;50.966;7.210;2022-08-21T02:09:04;14.50;;;8.80;;
5696;SDS011;2873;50.966;7.210;2022-08-21T02:11:31;13.85;;;9.18;;
5696;SDS011;2873;50.966;7.210;2022-08-21T02:13:59;13.35;;;9.00;;
5696;SDS011;2873;50.966;7.210;2022-08-21T02:16:25;14.93;;;9.27;;
5696;SDS011;2873;50.966;7.210;2022-08-21T02:18:50;15.68;;;9.30;;
5696;SDS011;2873;50.966;7.210;2022-08-21T02:21:16;13.48;;;9.00;;
5696;SDS011;2873;50.966;7.210;2022-08-21T02:23:42;15.57;;;9.40;;
5696;SDS011;2873;50.966;7.210;2022-08-21T02:26:08;15.35;;;9.50;;
5696;SDS011;2873;50.966;7.210;2022-08-21T02:28:35;14.95;;;9.48;;
5696;SDS011;2873;50.966;7.210;2022-08-21T02:31:02;14.15;;;8.88;;
5696;SDS011;2873;50.966;7.210;2022-08-21T02:33:30;13.63;;;9.40;;
5696;SDS011;2873;50.966;7.210;2022-08-21T02:35:56;11.57;;;9.10;;
5696;SDS011;2873;50.966;7.210;2022-08-21T02:38:23;11.90;;;9.33;;
5696;SDS011;2873;50.966;7.210;2022-08-21T02:40:53;15.40;;;10.30;;
5696;SDS011;2873;50.966;7.210;2022-08-21T02:43:20;12.85;;;9.65;;
5696;SDS011;2873;50.966;7.210;2022-08-21T02:45:48;16.02;;;9.10;;
5696;SDS011;2873;50.966;7.210;2022-08-21T02:48:16;15.25;;;9.02;;
5696;SDS011;2873;50.966;7.210;2022-08-21T02:50:45;15.38;;;9.00;;
5696;SDS011;2873;50.966;7.210;2022-08-21T02:53:18;10.50;;;8.40;;
5696;SDS011;2873;50.966;7.210;2022-08-21T02:55:45;11.40;;;8.60;;
5696;SDS011;2873;50.966;7.210;2022-08-21T02:58:14;11.38;;;8.30;;
5696;SDS011;2873;50.966;7.210;2022-08-21T03:00:41;12.47;;;8.73;;
5696;SDS011;2873;50.966;7.210;2022-08-21T03:03:09;13.40;;;9.68;;
5696;SDS011;2873;50.966;7.210;2022-08-21T03:05:35;12.60;;;9.43;;
5696;SDS011;2873;50.966;7.210;2022-08-21T03:08:02;13.43;;;9.00;;
5696;SDS011;2873;50.966;7.210;2022-08-21T03:10:34;14.00;;;9.10;;
5696;SDS011;2873;50.966;7.210;2022-08-21T03:13:00;11.80;;;8.87;;
5696;SDS011;2873;50.966;7.210;2022-08-21T03:15:28;13.95;;;9.35;;
5696;SDS011;2873;50.966;7.210;2022-08-21T03:17:55;15.67;;;9.40;;
5696;SDS011;2873;50.966;7.210;2022-08-21T03:20:22;13.02;;;9.32;;
5696;SDS011;2873;50.966;7.210;2022-08-21T03:22:51;13.15;;;9.32;;
5696;SDS011;2873;50.966;7.210;2022-08-21T03:25:18;16.58;;;9.50;;
5696;SDS011;2873;50.966;7.210;2022-08-21T03:27:45;12.48;;;9.27;;
5696;SDS011;2873;50.966;7.210;2022-08-21T03:30:12;13.38;;;9.32;;
5696;SDS011;2873;50.966;7.210;2022-08-21T03:32:38;16.90;;;10.40;;
5696;SDS011;2873;50.966;7.210;2022-08-21T03:35:04;12.48;;;8.77;;
5696;SDS011;2873;50.966;7.210;2022-08-21T03:37:30;19.10;;;9.85;;
5696;SDS011;2873;50.966;7.210;2022-08-21T03:39:57;14.68;;;9.90;;
5696;SDS011;2873;50.966;7.210;2022-08-21T03:42:22;14.40;;;10.20;;
5696;SDS011;2873;50.966;7.210;2022-08-21T03:44:48;14.25;;;10.25;;
5696;SDS011;2873;50.966;7.210;2022-08-21T03:47:14;15.40;;;10.00;;
5696;SDS011;2873;50.966;7.210;2022-08-21T03:49:39;17.90;;;10.30;;
5696;SDS011;2873;50.966;7.210;2022-08-21T03:52:05;16.53;;;10.10;;
5696;SDS011;2873;50.966;7.210;2022-08-21T03:54:31;13.70;;;9.93;;
5696;SDS011;2873;50.966;7.210;2022-08-21T03:56:57;14.15;;;9.80;;
5696;SDS011;2873;50.966;7.210;2022-08-21T03:59:23;18.53;;;9.83;;
5696;SDS011;2873;50.966;7.210;2022-08-21T04:01:52;14.82;;;10.00;;
5696;SDS011;2873;50.966;7.210;2022-08-21T04:04:19;16.75;;;11.48;;
5696;SDS011;2873;50.966;7.210;2022-08-21T04:06:45;15.73;;;10.40;;
5696;SDS011;2873;50.966;7.210;2022-08-21T04:09:10;16.15;;;10.52;;
5696;SDS011;2873;50.966;7.210;2022-08-21T04:11:36;14.68;;;10.23;;
5696;SDS011;2873;50.966;7.210;2022-08-21T04:14:02;16.97;;;10.43;;
5696;SDS011;2873;50.966;7.210;2022-08-21T04:16:28;17.50;;;9.90;;
5696;SDS011;2873;50.966;7.210;2022-08-21T04:18:53;15.67;;;10.77;;
5696;SDS011;2873;50.966;7.210;2022-08-21T04:21:19;15.73;;;10.37;;
5696;SDS011;2873;50.966;7.210;2022-08-21T04:23:44;18.25;;;11.10;;
5696;SDS011;2873;50.966;7.210;2022-08-21T04:26:10;14.50;;;10.33;;
5696;SDS011;2873;50.966;7.210;2022-08-21T04:28:36;14.85;;;9.77;;
5696;SDS011;2873;50.966;7.210;2022-08-21T04:31:01;16.73;;;10.73;;
5696;SDS011;2873;50.966;7.210;2022-08-21T04:33:27;14.88;;;10.50;;
5696;SDS011;2873;50.966;7.210;2022-08-21T04:35:53;12.97;;;10.40;;
5696;SDS011;2873;50.966;7.210;2022-08-21T04:38:18;18.75;;;9.50;;
5696;SDS011;2873;50.966;7.210;2022-08-21T04:40:45;16.02;;;9.32;;
5696;SDS011;2873;50.966;7.210;2022-08-21T04:43:10;15.27;;;9.70;;
5696;SDS011;2873;50.966;7.210;2022-08-21T04:45:38;12.10;;;9.48;;
5696;SDS011;2873;50.966;7.210;2022-08-21T04:48:09;17.60;;;10.07;;
5696;SDS011;2873;50.966;7.210;2022-08-21T04:53:07;14.45;;;9.50;;
5696;SDS011;2873;50.966;7.210;2022-08-21T04:55:39;16.50;;;9.88;;
5696;SDS011;2873;50.966;7.210;2022-08-21T04:58:07;18.92;;;10.40;;
5696;SDS011;2873;50.966;7.210;2022-08-21T05:00:34;15.57;;;10.40;;
5696;SDS011;2873;50.966;7.210;2022-08-21T05:03:00;19.13;;;10.15;;
5696;SDS011;2873;50.966;7.210;2022-08-21T05:05:29;12.32;;;9.60;;
5696;SDS011;2873;50.966;7.210;2022-08-21T05:07:54;17.70;;;10.33;;
5696;SDS011;2873;50.966;7.210;2022-08-21T05:10:21;18.25;;;10.18;;
5696;SDS011;2873;50.966;7.210;2022-08-21T05:12:47;18.95;;;9.90;;
5696;SDS011;2873;50.966;7.210;2022-08-21T05:15:14;17.38;;;11.13;;
5696;SDS011;2873;50.966;7.210;2022-08-21T05:17:40;17.38;;;9.82;;
5696;SDS011;2873;50.966;7.210;2022-08-21T05:20:07;13.68;;;9.45;;
5696;SDS011;2873;50.966;7.210;2022-08-21T05:22:34;13.02;;;9.55;;
5696;SDS011;2873;50.966;7.210;2022-08-21T05:24:59;16.00;;;10.43;;
5696;SDS011;2873;50.966;7.210;2022-08-21T05:27:25;14.37;;;9.67;;
5696;SDS011;2873;50.966;7.210;2022-08-21T05:29:50;14.40;;;9.80;;
5696;SDS011;2873;50.966;7.210;2022-08-21T05:32:16;15.18;;;9.93;;
5696;SDS011;2873;50.966;7.210;2022-08-21T05:34:42;17.00;;;10.20;;
5696;SDS011;2873;50.966;7.210;2022-08-21T05:37:09;15.87;;;9.90;;
5696;SDS011;2873;50.966;7.210;2022-08-21T05:39:36;19.20;;;11.10;;
5696;SDS011;2873;50.966;7.210;2022-08-21T05:42:01;20.10;;;11.87;;
5696;SDS011;2873;50.966;7.210;2022-08-21T05:44:27;18.58;;;11.50;;
5696;SDS011;2873;50.966;7.210;2022-08-21T05:46:52;19.53;;;11.80;;
5696;SDS011;2873;50.966;7.210;2022-08-21T05:49:18;14.80;;;10.77;;
5696;SDS011;2873;50.966;7.210;2022-08-21T05:51:44;12.60;;;9.75;;
5696;SDS011;2873;50.966;7.210;2022-08-21T05:54:09;13.27;;;9.40;;
5696;SDS011;2873;50.966;7.210;2022-08-21T05:56:36;11.85;;;10.00;;
5696;SDS011;2873;50.966;7.210;2022-08-21T05:59:02;11.85;;;9.18;;
5696;SDS011;2873;50.966;7.210;2022-08-21T06:01:28;14.52;;;9.95;;
5696;SDS011;2873;50.966;7.210;2022-08-21T06:03:53;13.93;;;9.77;;
5696;SDS011;2873;50.966;7.210;2022-08-21T06:06:19;16.57;;;10.63;;
5696;SDS011;2873;50.966;7.210;2022-08-21T06:08:45;18.10;;;10.47;;
5696;SDS011;2873;50.966;7.210;2022-08-21T06:11:10;21.70;;;10.10;;
5696;SDS011;2873;50.966;7.210;2022-08-21T06:13:36;15.53;;;10.80;;
5696;SDS011;2873;50.966;7.210;2022-08-21T06:16:05;19.43;;;11.40;;
5696;SDS011;2873;50.966;7.210;2022-08-21T06:18:31;18.63;;;12.20;;
5696;SDS011;2873;50.966;7.210;2022-08-21T06:20:57;19.42;;;11.80;;
5696;SDS011;2873;50.966;7.210;2022-08-21T06:23:23;17.97;;;12.47;;
5696;SDS011;2873;50.966;7.210;2022-08-21T06:25:48;19.00;;;11.93;;
5696;SDS011;2873;50.966;7.210;2022-08-21T06:28:14;18.75;;;12.35;;
5696;SDS011;2873;50.966;7.210;2022-08-21T06:30:39;18.90;;;12.70;;
5696;SDS011;2873;50.966;7.210;2022-08-21T06:33:05;18.27;;;11.80;;
5696;SDS011;2873;50.966;7.210;2022-08-21T06:35:32;19.70;;;13.18;;
5696;SDS011;2873;50.966;7.210;2022-08-21T06:37:58;17.90;;;11.85;;
5696;SDS011;2873;50.966;7.210;2022-08-21T06:40:24;15.15;;;11.13;;
5696;SDS011;2873;50.966;7.210;2022-08-21T06:42:53;15.93;;;10.50;;
5696;SDS011;2873;50.966;7.210;2022-08-21T06:45:19;18.67;;;10.88;;
5696;SDS011;2873;50.966;7.210;2022-08-21T06:47:45;18.33;;;10.75;;
5696;SDS011;2873;50.966;7.210;2022-08-21T06:50:11;17.77;;;11.17;;
5696;SDS011;2873;50.966;7.210;2022-08-21T06:52:37;15.23;;;10.02;;
5696;SDS011;2873;50.966;7.210;2022-08-21T06:55:04;16.25;;;11.35;;
5696;SDS011;2873;50.966;7.210;2022-08-21T06:57:31;16.02;;;10.57;;
5696;SDS011;2873;50.966;7.210;2022-08-21T06:59:57;15.70;;;10.68;;
5696;SDS011;2873;50.966;7.210;2022-08-21T07:02:23;16.23;;;10.10;;
5696;SDS011;2873;50.966;7.210;2022-08-21T07:04:48;19.20;;;11.05;;
5696;SDS011;2873;50.966;7.210;2022-08-21T07:07:14;14.00;;;9.77;;
5696;SDS011;2873;50.966;7.210;2022-08-21T07:09:40;15.80;;;10.40;;
5696;SDS011;2873;50.966;7.210;2022-08-21T07:12:05;17.98;;;10.40;;
5696;SDS011;2873;50.966;7.210;2022-08-21T07:14:32;18.85;;;10.35;;
5696;SDS011;2873;50.966;7.210;2022-08-21T07:16:57;15.27;;;9.70;;
5696;SDS011;2873;50.966;7.210;2022-08-21T07:19:23;17.13;;;10.10;;
5696;SDS011;2873;50.966;7.210;2022-08-21T07:21:49;16.30;;;9.50;;
5696;SDS011;2873;50.966;7.210;2022-08-21T07:24:14;11.73;;;8.13;;
5696;SDS011;2873;50.966;7.210;2022-08-21T07:26:40;15.82;;;8.30;;
5696;SDS011;2873;50.966;7.210;2022-08-21T07:29:06;14.43;;;8.43;;
5696;SDS011;2873;50.966;7.210;2022-08-21T07:31:32;12.30;;;8.17;;
5696;SDS011;2873;50.966;7.210;2022-08-21T07:33:57;12.52;;;7.50;;
5696;SDS011;2873;50.966;7.210;2022-08-21T07:36:23;13.93;;;7.70;;
5696;SDS011;2873;50.966;7.210;2022-08-21T07:38:49;13.40;;;7.43;;
5696;SDS011;2873;50.966;7.210;2022-08-21T07:41:19;14.40;;;7.50;;
5696;SDS011;2873;50.966;7.210;2022-08-21T07:43:47;12.27;;;7.00;;
5696;SDS011;2873;50.966;7.210;2022-08-21T07:46:13;12.37;;;7.30;;
5696;SDS011;2873;50.966;7.210;2022-08-21T07:48:39;8.40;;;5.50;;
5696;SDS011;2873;50.966;7.210;2022-08-21T07:51:06;11.30;;;6.50;;
5696;SDS011;2873;50.966;7.210;2022-08-21T07:53:34;11.27;;;6.87;;
5696;SDS011;2873;50.966;7.210;2022-08-21T07:56:00;11.77;;;6.10;;
5696;SDS011;2873;50.966;7.210;2022-08-21T07:58:26;11.00;;;5.50;;
5696;SDS011;2873;50.966;7.210;2022-08-21T08:00:51;12.25;;;5.25;;
5696;SDS011;2873;50.966;7.210;2022-08-21T08:03:17;8.80;;;5.30;;
5696;SDS011;2873;50.966;7.210;2022-08-21T08:05:43;11.03;;;5.00;;
5696;SDS011;2873;50.966;7.210;2022-08-21T08:08:08;8.43;;;4.43;;
5696;SDS011;2873;50.966;7.210;2022-08-21T08:10:34;8.25;;;4.40;;
5696;SDS011;2873;50.966;7.210;2022-08-21T08:13:00;8.13;;;4.50;;
5696;SDS011;2873;50.966;7.210;2022-08-21T08:15:26;8.80;;;4.40;;
5696;SDS011;2873;50.966;7.210;2022-08-21T08:17:53;10.90;;;3.90;;
5696;SDS011;2873;50.966;7.210;2022-08-21T08:20:19;7.80;;;4.00;;
5696;SDS011;2873;50.966;7.210;2022-08-21T08:22:47;7.07;;;4.10;;
5696;SDS011;2873;50.966;7.210;2022-08-21T08:25:15;11.50;;;4.90;;
5696;SDS011;2873;50.966;7.210;2022-08-21T08:27:42;7.00;;;4.00;;
5696;SDS011;2873;50.966;7.210;2022-08-21T08:30:08;11.27;;;4.40;;
5696;SDS011;2873;50.966;7.210;2022-08-21T08:32:35;8.85;;;4.13;;
5696;SDS011;2873;50.966;7.210;2022-08-21T08:35:02;9.67;;;4.00;;
5696;SDS011;2873;50.966;7.210;2022-08-21T08:37:28;8.95;;;4.05;;
5696;SDS011;2873;50.966;7.210;2022-08-21T08:39:54;11.13;;;4.43;;
5696;SDS011;2873;50.966;7.210;2022-08-21T08:44:53;12.10;;;4.07;;
5696;SDS011;2873;50.966;7.210;2022-08-21T08:47:25;7.28;;;3.40;;
5696;SDS011;2873;50.966;7.210;2022-08-21T08:52:32;6.65;;;4.00;;
5696;SDS011;2873;50.966;7.210;2022-08-21T08:57:34;10.60;;;4.30;;
5696;SDS011;2873;50.966;7.210;2022-08-21T09:00:09;11.50;;;4.43;;
5696;SDS011;2873;50.966;7.210;2022-08-21T09:02:40;9.95;;;4.28;;
5696;SDS011;2873;50.966;7.210;2022-08-21T09:05:09;7.75;;;3.38;;
5696;SDS011;2873;50.966;7.210;2022-08-21T09:11:02;6.27;;;3.70;;
5696;SDS011;2873;50.966;7.210;2022-08-21T09:16:48;9.63;;;3.30;;
5696;SDS011;2873;50.966;7.210;2022-08-21T09:27:25;5.10;;;2.83;;
5696;SDS011;2873;50.966;7.210;2022-08-21T09:29:52;10.75;;;3.28;;
5696;SDS011;2873;50.966;7.210;2022-08-21T09:35:00;4.82;;;2.75;;
5696;SDS011;2873;50.966;7.210;2022-08-21T09:37:44;7.05;;;3.40;;
5696;SDS011;2873;50.966;7.210;2022-08-21T09:43:17;3.85;;;2.83;;
5696;SDS011;2873;50.966;7.210;2022-08-21T09:45:44;10.18;;;3.63;;
5696;SDS011;2873;50.966;7.210;2022-08-21T09:48:15;7.53;;;3.28;;
5696;SDS011;2873;50.966;7.210;2022-08-21T09:50:47;7.95;;;3.63;;
5696;SDS011;2873;50.966;7.210;2022-08-21T09:53:21;7.05;;;2.58;;
5696;SDS011;2873;50.966;7.210;2022-08-21T09:58:37;11.15;;;2.97;;
5696;SDS011;2873;50.966;7.210;2022-08-21T10:01:05;5.72;;;2.80;;
5696;SDS011;2873;50.966;7.210;2022-08-21T10:03:31;6.72;;;2.67;;
5696;SDS011;2873;50.966;7.210;2022-08-21T10:06:02;6.13;;;2.60;;
5696;SDS011;2873;50.966;7.210;2022-08-21T10:08:33;5.80;;;2.50;;
5696;SDS011;2873;50.966;7.210;2022-08-21T10:11:10;4.95;;;2.50;;
5696;SDS011;2873;50.966;7.210;2022-08-21T10:19:02;6.57;;;2.60;;
5696;SDS011;2873;50.966;7.210;2022-08-21T10:21:42;8.45;;;3.00;;
5696;SDS011;2873;50.966;7.210;2022-08-21T10:26:49;3.80;;;1.85;;
5696;SDS011;2873;50.966;7.210;2022-08-21T10:29:47;7.03;;;2.30;;
5696;SDS011;2873;50.966;7.210;2022-08-21T10:35:31;4.88;;;1.90;;
5696;SDS011;2873;50.966;7.210;2022-08-21T10:46:19;5.80;;;2.45;;
5696;SDS011;2873;50.966;7.210;2022-08-21T10:49:20;4.07;;;2.17;;
5696;SDS011;2873;50.966;7.210;2022-08-21T10:51:55;6.53;;;2.10;;
5696;SDS011;2873;50.966;7.210;2022-08-21T11:00:06;6.45;;;2.40;;
5696;SDS011;2873;50.966;7.210;2022-08-21T11:02:41;5.50;;;2.15;;
5696;SDS011;2873;50.966;7.210;2022-08-21T11:05:13;5.13;;;1.85;;
5696;SDS011;2873;50.966;7.210;2022-08-21T11:07:45;4.75;;;2.17;;
5696;SDS011;2873;50.966;7.210;2022-08-21T11:13:00;5.20;;;2.30;;
5696;SDS011;2873;50.966;7.210;2022-08-21T11:15:48;6.28;;;2.40;;
5696;SDS011;2873;50.966;7.210;2022-08-21T11:18:41;7.80;;;1.20;;
5696;SDS011;2873;50.966;7.210;2022-08-21T11:21:27;4.53;;;1.60;;
5696;SDS011;2873;50.966;7.210;2022-08-21T11:24:24;5.18;;;1.80;;
5696;SDS011;2873;50.966;7.210;2022-08-21T11:29:46;6.05;;;1.60;;
5696;SDS011;2873;50.966;7.210;2022-08-21T11:32:25;2.90;;;1.63;;
5696;SDS011;2873;50.966;7.210;2022-08-21T11:38:35;3.33;;;1.73;;
5696;SDS011;2873;50.966;7.210;2022-08-21T11:43:53;4.60;;;1.58;;
5696;SDS011;2873;50.966;7.210;2022-08-21T11:57:29;4.40;;;1.70;;
5696;SDS011;2873;50.966;7.210;2022-08-21T12:02:50;4.65;;;1.60;;
5696;SDS011;2873;50.966;7.210;2022-08-21T12:05:22;5.95;;;1.50;;
5696;SDS011;2873;50.966;7.210;2022-08-21T12:08:00;6.90;;;2.10;;
5696;SDS011;2873;50.966;7.210;2022-08-21T12:10:33;4.03;;;1.52;;
5696;SDS011;2873;50.966;7.210;2022-08-21T12:13:08;4.50;;;1.60;;
5696;SDS011;2873;50.966;7.210;2022-08-21T12:16:05;3.40;;;1.60;;
5696;SDS011;2873;50.966;7.210;2022-08-21T12:18:31;3.90;;;1.40;;
5696;SDS011;2873;50.966;7.210;2022-08-21T12:21:03;3.28;;;1.00;;
5696;SDS011;2873;50.966;7.210;2022-08-21T12:34:30;3.40;;;1.30;;
5696;SDS011;2873;50.966;7.210;2022-08-21T12:37:01;3.53;;;1.70;;
5696;SDS011;2873;50.966;7.210;2022-08-21T12:39:32;2.42;;;1.48;;
5696;SDS011;2873;50.966;7.210;2022-08-21T12:47:15;1.80;;;1.02;;
5696;SDS011;2873;50.966;7.210;2022-08-21T12:49:54;3.53;;;1.23;;
5696;SDS011;2873;50.966;7.210;2022-08-21T12:52:39;5.45;;;1.83;;
5696;SDS011;2873;50.966;7.210;2022-08-21T12:55:14;4.28;;;1.25;;
5696;SDS011;2873;50.966;7.210;2022-08-21T12:57:49;6.40;;;1.40;;
5696;SDS011;2873;50.966;7.210;2022-08-21T13:00:19;3.13;;;1.30;;
5696;SDS011;2873;50.966;7.210;2022-08-21T13:02:47;5.55;;;1.30;;
5696;SDS011;2873;50.966;7.210;2022-08-21T13:05:16;3.33;;;1.20;;
5696;SDS011;2873;50.966;7.210;2022-08-21T13:07:58;2.47;;;1.20;;
5696;SDS011;2873;50.966;7.210;2022-08-21T13:10:29;2.30;;;1.00;;
5696;SDS011;2873;50.966;7.210;2022-08-21T13:12:59;4.22;;;1.30;;
5696;SDS011;2873;50.966;7.210;2022-08-21T13:15:28;2.95;;;1.08;;
5696;SDS011;2873;50.966;7.210;2022-08-21T13:17:57;3.72;;;1.10;;
5696;SDS011;2873;50.966;7.210;2022-08-21T13:20:36;1.80;;;1.00;;
5696;SDS011;2873;50.966;7.210;2022-08-21T13:23:16;2.20;;;1.30;;
5696;SDS011;2873;50.966;7.210;2022-08-21T13:25:46;11.90;;;1.10;;
5696;SDS011;2873;50.966;7.210;2022-08-21T13:28:12;13.40;;;2.30;;
5696;SDS011;2873;50.966;7.210;2022-08-21T13:30:43;7.20;;;1.60;;
5696;SDS011;2873;50.966;7.210;2022-08-21T13:33:12;1.50;;;1.10;;
5696;SDS011;2873;50.966;7.210;2022-08-21T13:38:25;1.85;;;0.80;;
5696;SDS011;2873;50.966;7.210;2022-08-21T13:41:02;1.00;;;0.90;;
5696;SDS011;2873;50.966;7.210;2022-08-21T13:43:35;2.30;;;1.00;;
5696;SDS011;2873;50.966;7.210;2022-08-21T13:46:02;1.98;;;0.80;;
5696;SDS011;2873;50.966;7.210;2022-08-21T13:48:34;3.70;;;0.60;;
5696;SDS011;2873;50.966;7.210;2022-08-21T13:51:01;4.43;;;0.93;;
5696;SDS011;2873;50.966;7.210;2022-08-21T13:55:53;3.70;;;1.10;;
5696;SDS011;2873;50.966;7.210;2022-08-21T13:58:27;1.40;;;0.80;;
5696;SDS011;2873;50.966;7.210;2022-08-21T14:01:15;1.42;;;0.80;;
5696;SDS011;2873;50.966;7.210;2022-08-21T14:03:44;2.13;;;0.70;;
5696;SDS011;2873;50.966;7.210;2022-08-21T14:06:12;7.70;;;0.93;;
5696;SDS011;2873;50.966;7.210;2022-08-21T14:08:59;1.45;;;0.90;;
5696;SDS011;2873;50.966;7.210;2022-08-21T14:11:27;1.50;;;1.00;;
5696;SDS011;2873;50.966;7.210;2022-08-21T14:13:58;2.03;;;0.82;;
5696;SDS011;2873;50.966;7.210;2022-08-21T14:16:46;2.03;;;1.00;;
5696;SDS011;2873;50.966;7.210;2022-08-21T14:19:19;1.60;;;1.00;;
5696;SDS011;2873;50.966;7.210;2022-08-21T14:21:47;2.95;;;1.00;;
5696;SDS011;2873;50.966;7.210;2022-08-21T14:29:22;2.38;;;1.13;;
5696;SDS011;2873;50.966;7.210;2022-08-21T14:31:52;1.47;;;1.00;;
5696;SDS011;2873;50.966;7.210;2022-08-21T14:34:24;2.10;;;1.10;;
5696;SDS011;2873;50.966;7.210;2022-08-21T14:36:52;2.78;;;1.20;;
5696;SDS011;2873;50.966;7.210;2022-08-21T14:39:18;1.55;;;0.85;;
5696;SDS011;2873;50.966;7.210;2022-08-21T14:41:44;1.95;;;1.20;;
5696;SDS011;2873;50.966;7.210;2022-08-21T14:44:12;2.70;;;1.10;;
5696;SDS011;2873;50.966;7.210;2022-08-21T14:46:39;2.10;;;1.40;;
5696;SDS011;2873;50.966;7.210;2022-08-21T14:49:04;3.83;;;1.30;;
5696;SDS011;2873;50.966;7.210;2022-08-21T14:51:30;3.60;;;1.23;;
5696;SDS011;2873;50.966;7.210;2022-08-21T14:53:55;3.63;;;1.20;;
5696;SDS011;2873;50.966;7.210;2022-08-21T14:56:21;2.30;;;1.20;;
5696;SDS011;2873;50.966;7.210;2022-08-21T14:58:48;2.80;;;1.30;;
5696;SDS011;2873;50.966;7.210;2022-08-21T15:01:16;3.42;;;1.40;;
5696;SDS011;2873;50.966;7.210;2022-08-21T15:03:43;1.90;;;1.00;;
5696;SDS011;2873;50.966;7.210;2022-08-21T15:06:12;3.13;;;1.30;;
5696;SDS011;2873;50.966;7.210;2022-08-21T15:08:38;3.93;;;1.30;;
5696;SDS011;2873;50.966;7.210;2022-08-21T15:11:03;2.88;;;1.40;;
5696;SDS011;2873;50.966;7.210;2022-08-21T15:13:31;5.07;;;1.60;;
5696;SDS011;2873;50.966;7.210;2022-08-21T15:15:57;4.50;;;1.20;;
5696;SDS011;2873;50.966;7.210;2022-08-21T15:18:24;2.35;;;1.10;;
5696;SDS011;2873;50.966;7.210;2022-08-21T15:20:52;2.00;;;1.20;;
5696;SDS011;2873;50.966;7.210;2022-08-21T15:23:18;4.87;;;1.70;;
5696;SDS011;2873;50.966;7.210;2022-08-21T15:25:45;3.83;;;1.40;;
5696;SDS011;2873;50.966;7.210;2022-08-21T15:28:12;3.72;;;1.50;;
5696;SDS011;2873;50.966;7.210;2022-08-21T15:30:40;3.63;;;1.70;;
5696;SDS011;2873;50.966;7.210;2022-08-21T15:33:06;2.75;;;1.58;;
5696;SDS011;2873;50.966;7.210;2022-08-21T15:35:32;3.25;;;1.30;;
5696;SDS011;2873;50.966;7.210;2022-08-21T15:37:58;3.58;;;1.40;;
5696;SDS011;2873;50.966;7.210;2022-08-21T15:40:24;6.70;;;1.40;;
5696;SDS011;2873;50.966;7.210;2022-08-21T15:42:50;3.78;;;1.40;;
5696;SDS011;2873;50.966;7.210;2022-08-21T15:45:20;2.53;;;1.30;;
5696;SDS011;2873;50.966;7.210;2022-08-21T15:47:46;4.38;;;1.38;;
5696;SDS011;2873;50.966;7.210;2022-08-21T15:50:15;3.80;;;1.30;;
5696;SDS011;2873;50.966;7.210;2022-08-21T15:52:41;5.70;;;1.63;;
5696;SDS011;2873;50.966;7.210;2022-08-21T15:55:07;1.92;;;1.40;;
5696;SDS011;2873;50.966;7.210;2022-08-21T15:57:33;4.32;;;1.30;;
5696;SDS011;2873;50.966;7.210;2022-08-21T16:00:00;5.45;;;1.70;;
5696;SDS011;2873;50.966;7.210;2022-08-21T16:02:37;2.80;;;1.23;;
5696;SDS011;2873;50.966;7.210;2022-08-21T16:05:05;6.20;;;1.60;;
5696;SDS011;2873;50.966;7.210;2022-08-21T16:07:31;2.67;;;1.10;;
5696;SDS011;2873;50.966;7.210;2022-08-21T16:09:56;3.03;;;1.07;;
5696;SDS011;2873;50.966;7.210;2022-08-21T16:12:23;2.63;;;1.45;;
5696;SDS011;2873;50.966;7.210;2022-08-21T16:14:51;4.30;;;1.40;;
5696;SDS011;2873;50.966;7.210;2022-08-21T16:17:18;5.43;;;1.17;;
5696;SDS011;2873;50.966;7.210;2022-08-21T16:19:45;1.87;;;1.10;;
5696;SDS011;2873;50.966;7.210;2022-08-21T16:22:11;3.77;;;1.30;;
5696;SDS011;2873;50.966;7.210;2022-08-21T16:24:37;2.92;;;0.98;;
5696;SDS011;2873;50.966;7.210;2022-08-21T16:27:03;2.38;;;1.30;;
5696;SDS011;2873;50.966;7.210;2022-08-21T16:29:30;4.90;;;1.40;;
5696;SDS011;2873;50.966;7.210;2022-08-21T16:31:59;4.20;;;1.25;;
5696;SDS011;2873;50.966;7.210;2022-08-21T16:34:25;2.00;;;1.20;;
5696;SDS011;2873;50.966;7.210;2022-08-21T16:36:52;2.97;;;1.00;;
5696;SDS011;2873;50.966;7.210;2022-08-21T16:39:18;2.40;;;1.20;;
5696;SDS011;2873;50.966;7.210;2022-08-21T16:41:44;3.35;;;1.10;;
5696;SDS011;2873;50.966;7.210;2022-08-21T16:44:09;5.43;;;1.30;;
5696;SDS011;2873;50.966;7.210;2022-08-21T16:46:37;1.63;;;0.83;;
5696;SDS011;2873;50.966;7.210;2022-08-21T16:49:04;3.25;;;1.27;;
5696;SDS011;2873;50.966;7.210;2022-08-21T16:51:31;2.28;;;1.10;;
5696;SDS011;2873;50.966;7.210;2022-08-21T16:53:58;4.85;;;1.20;;
5696;SDS011;2873;50.966;7.210;2022-08-21T16:56:24;2.63;;;1.20;;
5696;SDS011;2873;50.966;7.210;2022-08-21T16:58:50;6.45;;;1.30;;
5696;SDS011;2873;50.966;7.210;2022-08-21T17:01:18;2.60;;;1.60;;
5696;SDS011;2873;50.966;7.210;2022-08-21T17:03:48;3.58;;;1.20;;
5696;SDS011;2873;50.966;7.210;2022-08-21T17:06:18;1.40;;;0.80;;